Time;durP1;ratioP1;P1;durP2;ratioP2;P2;SDS_P1;SDS_P2;PMS_P1;PMS_P2;Temp;Humidity;BMP_temperature;BMP_pressure;BME280_temperature;BME280_humidity;BME280_pressure;Samples;Min_cycle;Max_cycle;Signal;HPM_P1;HPM_P2
2023/03/03 00:01:35;;;;;;;25.00;9.88;;;2.90;99.90;;;;;;4991343;28;20091;-74
2023/03/03 00:04:00;;;;;;;33.22;11.07;;;2.90;99.90;;;;;;4992294;28;20085;-75
2023/03/03 00:06:28;;;;;;;18.98;8.85;;;2.90;99.90;;;;;;4992533;28;20030;-75
2023/03/03 00:08:54;;;;;;;22.30;8.68;;;3.00;99.90;;;;;;4992906;28;20034;-74
2023/03/03 00:11:20;;;;;;;16.63;7.95;;;3.00;99.90;;;;;;4991934;28;20038;-74
2023/03/03 00:13:50;;;;;;;18.55;8.30;;;3.10;99.90;;;;;;4993187;28;20045;-74
2023/03/03 00:16:37;;;;;;;29.17;8.63;;;3.10;99.90;;;;;;4991281;28;20100;-74
2023/03/03 00:19:18;;;;;;;21.63;7.72;;;3.10;99.90;;;;;;4992714;28;20034;-75
2023/03/03 00:21:46;;;;;;;31.53;9.53;;;3.10;99.90;;;;;;4992091;28;20500;-74
2023/03/03 00:24:24;;;;;;;15.73;8.82;;;2.90;99.90;;;;;;4993051;28;20068;-74
2023/03/03 00:26:56;;;;;;;23.73;8.00;;;3.00;99.90;;;;;;4992330;28;20026;-74
2023/03/03 00:29:36;;;;;;;23.02;7.68;;;3.00;99.90;;;;;;4973158;28;20097;-74
2023/03/03 00:32:14;;;;;;;25.75;11.30;;;2.90;99.90;;;;;;4989680;28;20564;-74
2023/03/03 00:34:41;;;;;;;25.48;9.13;;;2.90;99.90;;;;;;4992773;28;20486;-75
2023/03/03 00:37:32;;;;;;;17.45;7.43;;;2.80;99.90;;;;;;4991648;28;20038;-74
2023/03/03 00:40:19;;;;;;;19.17;8.48;;;2.90;99.90;;;;;;4991705;28;20038;-74
2023/03/03 00:42:53;;;;;;;28.58;9.32;;;2.90;99.90;;;;;;4991214;28;20086;-74
2023/03/03 00:45:58;;;;;;;22.15;10.07;;;2.90;99.90;;;;;;4991065;28;20030;-74
2023/03/03 00:48:34;;;;;;;18.50;7.07;;;2.70;99.90;;;;;;4916050;29;20151;-73
2023/03/03 00:51:21;;;;;;;25.52;8.85;;;2.70;99.90;;;;;;4916725;29;20047;-73
2023/03/03 00:53:47;;;;;;;19.02;8.50;;;2.50;99.90;;;;;;4917818;29;20047;-73
2023/03/03 00:56:13;;;;;;;22.73;8.70;;;2.30;99.90;;;;;;4932052;29;20476;-75
2023/03/03 00:58:39;;;;;;;20.88;9.15;;;2.30;99.90;;;;;;4916052;29;20124;-75
2023/03/03 01:01:04;;;;;;;20.58;8.02;;;2.30;99.90;;;;;;4931610;29;20066;-75
2023/03/03 01:03:31;;;;;;;20.17;6.22;;;2.20;99.90;;;;;;4931765;29;20040;-75
2023/03/03 01:05:57;;;;;;;20.25;8.15;;;2.10;99.90;;;;;;4931681;29;20091;-75
2023/03/03 01:08:23;;;;;;;16.05;7.57;;;1.90;99.90;;;;;;4915678;29;20055;-73
2023/03/03 01:10:55;;;;;;;15.90;7.93;;;1.90;99.90;;;;;;4968172;23;20130;-75
2023/03/03 01:13:31;;;;;;;17.75;8.88;;;1.90;99.90;;;;;;4974749;28;20035;-74
2023/03/03 01:15:59;;;;;;;24.58;7.97;;;1.80;99.90;;;;;;4973714;28;20030;-75
2023/03/03 01:18:26;;;;;;;26.20;10.18;;;1.40;99.90;;;;;;4974425;28;20030;-75
2023/03/03 01:20:52;;;;;;;15.98;7.65;;;1.40;99.90;;;;;;4961687;28;20106;-75
2023/03/03 01:23:18;;;;;;;22.52;8.57;;;1.40;99.90;;;;;;4952753;28;20507;-76
2023/03/03 01:25:43;;;;;;;22.13;8.85;;;1.50;99.90;;;;;;4947264;28;20042;-76
2023/03/03 01:28:09;;;;;;;18.48;9.63;;;1.50;99.90;;;;;;4947995;28;20034;-75
2023/03/03 01:30:36;;;;;;;15.88;7.07;;;1.60;99.90;;;;;;4946126;28;20031;-75
2023/03/03 01:33:02;;;;;;;15.48;6.55;;;1.30;99.90;;;;;;4947758;28;20039;-75
2023/03/03 01:35:28;;;;;;;15.25;7.88;;;1.00;99.90;;;;;;4950609;28;20043;-75
2023/03/03 01:37:55;;;;;;;14.55;8.52;;;1.10;99.90;;;;;;4951791;28;20038;-76
2023/03/03 01:40:28;;;;;;;18.15;8.70;;;1.10;99.90;;;;;;4953202;28;20042;-75
2023/03/03 01:42:55;;;;;;;21.80;7.88;;;1.20;99.90;;;;;;4953761;28;20133;-75
2023/03/03 01:45:30;;;;;;;18.73;7.35;;;1.30;99.90;;;;;;4951712;28;20089;-75
2023/03/03 01:48:30;;;;;;;16.83;7.20;;;1.30;99.90;;;;;;4953199;28;20518;-75
2023/03/03 01:51:09;;;;;;;26.20;9.00;;;1.40;99.90;;;;;;4946927;28;20160;-75
2023/03/03 01:53:51;;;;;;;25.40;8.75;;;1.50;99.90;;;;;;4949051;28;20459;-76
2023/03/03 01:56:18;;;;;;;13.93;6.82;;;1.50;99.90;;;;;;4938967;28;20038;-76
2023/03/03 01:59:19;;;;;;;23.17;8.95;;;1.50;99.90;;;;;;4949683;28;20023;-75
2023/03/03 02:01:47;;;;;;;14.60;6.57;;;1.40;99.90;;;;;;4962106;28;20066;-75
2023/03/03 02:04:13;;;;;;;20.50;7.85;;;1.30;99.90;;;;;;4945612;28;20033;-75
2023/03/03 02:06:46;;;;;;;15.13;7.57;;;1.20;99.90;;;;;;4945058;28;20027;-75
2023/03/03 02:09:32;;;;;;;14.25;7.10;;;1.20;99.90;;;;;;4946362;28;20046;-75
2023/03/03 02:12:04;;;;;;;12.27;6.10;;;1.10;99.90;;;;;;4947159;28;20140;-75
2023/03/03 02:14:30;;;;;;;17.70;8.43;;;1.00;99.90;;;;;;4945778;28;20101;-75
2023/03/03 02:16:56;;;;;;;18.02;8.45;;;1.00;99.90;;;;;;4949114;28;20049;-74
2023/03/03 02:19:57;;;;;;;18.90;9.25;;;1.00;99.90;;;;;;4948667;28;20039;-74
2023/03/03 02:22:46;;;;;;;17.08;8.07;;;0.80;99.90;;;;;;4946752;28;20082;-75
2023/03/03 02:25:19;;;;;;;18.27;8.48;;;0.50;99.90;;;;;;4948713;28;20089;-75
2023/03/03 02:27:45;;;;;;;15.70;6.55;;;0.40;99.90;;;;;;4946010;28;20050;-75
2023/03/03 02:30:18;;;;;;;18.67;8.35;;;0.40;99.90;;;;;;4945907;28;20039;-75
2023/03/03 02:32:43;;;;;;;15.80;6.28;;;0.50;99.90;;;;;;4963560;28;20418;-75
2023/03/03 02:35:38;;;;;;;17.92;8.48;;;0.50;99.90;;;;;;4950530;28;20031;-75
2023/03/03 02:38:15;;;;;;;22.63;9.23;;;0.50;99.90;;;;;;4951361;28;20562;-75
2023/03/03 02:41:09;;;;;;;17.02;7.38;;;0.60;99.90;;;;;;4950213;28;20035;-75
2023/03/03 02:44:06;;;;;;;13.63;5.95;;;0.70;99.90;;;;;;4949116;28;20410;-75
2023/03/03 02:46:40;;;;;;;17.13;6.07;;;0.70;99.90;;;;;;4953253;28;20039;-75
2023/03/03 02:49:08;;;;;;;18.75;9.68;;;0.70;99.90;;;;;;4948616;28;20058;-75
2023/03/03 02:51:35;;;;;;;26.25;9.10;;;0.80;99.90;;;;;;4949478;28;20031;-75
2023/03/03 02:54:02;;;;;;;14.32;7.63;;;0.80;99.90;;;;;;4932482;28;20064;-75
2023/03/03 02:56:28;;;;;;;18.55;6.13;;;0.80;99.90;;;;;;4950935;28;20062;-75
2023/03/03 02:58:54;;;;;;;14.70;6.63;;;0.90;99.90;;;;;;4949959;28;20114;-74
2023/03/03 03:01:20;;;;;;;15.15;6.70;;;0.90;99.90;;;;;;4964442;28;20119;-75
2023/03/03 03:03:46;;;;;;;11.35;5.70;;;0.90;99.90;;;;;;4947699;28;20035;-75
2023/03/03 03:06:12;;;;;;;11.18;6.60;;;0.90;99.90;;;;;;4951950;28;20081;-75
2023/03/03 03:08:37;;;;;;;19.75;7.75;;;0.90;99.90;;;;;;4950686;28;20447;-75
2023/03/03 03:11:04;;;;;;;16.95;7.68;;;0.90;99.90;;;;;;4952290;28;20038;-74
2023/03/03 03:13:30;;;;;;;12.20;5.82;;;0.90;99.90;;;;;;4951828;28;20110;-75
2023/03/03 03:15:56;;;;;;;8.45;4.75;;;0.90;99.90;;;;;;4956659;28;20114;-75
2023/03/03 03:18:22;;;;;;;28.00;5.97;;;0.80;99.90;;;;;;4951242;28;20515;-74
2023/03/03 03:20:48;;;;;;;9.60;5.22;;;0.80;99.90;;;;;;4951567;28;20039;-75
2023/03/03 03:23:14;;;;;;;15.40;5.60;;;0.90;99.90;;;;;;4951541;28;20035;-75
2023/03/03 03:25:44;;;;;;;11.90;6.03;;;0.90;99.90;;;;;;4950256;28;20054;-76
2023/03/03 03:28:16;;;;;;;9.63;6.55;;;0.90;99.90;;;;;;4952912;28;20110;-75
2023/03/03 03:30:43;;;;;;;11.00;5.32;;;0.90;99.90;;;;;;4950752;28;20041;-76
2023/03/03 03:33:09;;;;;;;9.82;6.47;;;0.90;99.90;;;;;;4940285;28;20089;-74
2023/03/03 03:35:35;;;;;;;11.65;6.68;;;0.90;99.90;;;;;;4949808;28;20067;-75
2023/03/03 03:38:02;;;;;;;12.38;5.13;;;0.80;99.90;;;;;;4951609;28;20027;-74
2023/03/03 03:40:28;;;;;;;9.95;4.10;;;0.90;99.90;;;;;;4938347;28;20042;-75
2023/03/03 03:42:55;;;;;;;6.50;3.03;;;0.90;99.90;;;;;;4950366;28;20398;-74
2023/03/03 03:45:21;;;;;;;10.70;4.32;;;0.90;99.90;;;;;;4951391;28;20042;-74
2023/03/03 03:47:47;;;;;;;10.75;3.83;;;0.90;99.90;;;;;;4948239;28;20495;-75
2023/03/03 03:50:13;;;;;;;8.95;3.95;;;0.80;99.90;;;;;;4948477;28;20045;-75
2023/03/03 03:52:39;;;;;;;9.10;4.95;;;0.70;99.90;;;;;;4949439;28;20413;-75
2023/03/03 03:55:06;;;;;;;9.18;4.03;;;0.80;99.90;;;;;;4950519;28;20483;-74
2023/03/03 03:57:32;;;;;;;6.32;4.00;;;0.80;99.90;;;;;;4950284;28;20303;-74
2023/03/03 03:59:57;;;;;;;4.93;3.40;;;0.70;99.90;;;;;;4950844;28;20387;-74
2023/03/03 04:02:23;;;;;;;8.00;4.53;;;0.70;99.90;;;;;;4953262;28;20031;-75
2023/03/03 04:04:49;;;;;;;13.35;4.95;;;0.70;99.90;;;;;;4952003;28;20059;-74
2023/03/03 04:07:14;;;;;;;12.80;4.25;;;0.60;99.90;;;;;;4953476;28;20125;-75
2023/03/03 04:09:40;;;;;;;4.53;2.75;;;0.70;99.90;;;;;;4964503;28;20062;-74
2023/03/03 04:12:06;;;;;;;6.03;2.88;;;0.70;99.90;;;;;;4949641;28;20049;-76
2023/03/03 04:14:32;;;;;;;10.18;4.65;;;0.70;99.90;;;;;;4950868;28;20121;-75
2023/03/03 04:16:58;;;;;;;7.13;3.30;;;0.70;99.90;;;;;;4953063;28;20035;-75
2023/03/03 04:19:23;;;;;;;7.57;3.63;;;0.70;99.90;;;;;;4951950;28;20050;-74
2023/03/03 04:21:50;;;;;;;7.55;3.38;;;0.70;99.90;;;;;;4962314;28;20034;-75
2023/03/03 04:24:18;;;;;;;10.23;4.18;;;0.60;99.90;;;;;;4953171;28;20579;-75
2023/03/03 04:26:44;;;;;;;6.80;3.92;;;0.60;99.90;;;;;;4950347;28;20372;-75
2023/03/03 04:29:10;;;;;;;9.23;4.57;;;0.60;99.90;;;;;;4951392;28;20038;-75
2023/03/03 04:31:35;;;;;;;8.95;3.40;;;0.70;99.90;;;;;;4948043;28;20035;-75
2023/03/03 04:34:01;;;;;;;5.38;3.03;;;0.70;99.90;;;;;;4951062;28;20069;-74
2023/03/03 04:36:27;;;;;;;6.88;3.70;;;0.70;99.90;;;;;;4954562;28;20986;-75
2023/03/03 04:38:53;;;;;;;8.88;4.35;;;0.80;99.90;;;;;;4950968;28;20053;-75
2023/03/03 04:41:19;;;;;;;13.23;4.88;;;0.70;99.90;;;;;;4955851;28;20494;-75
2023/03/03 04:43:44;;;;;;;7.97;3.45;;;0.70;99.90;;;;;;4961413;28;20034;-75
2023/03/03 04:46:10;;;;;;;15.57;3.63;;;0.70;99.90;;;;;;4965760;28;20534;-75
2023/03/03 04:48:37;;;;;;;3.80;2.60;;;0.70;99.90;;;;;;4966297;28;20678;-74
2023/03/03 04:51:03;;;;;;;8.02;3.22;;;0.60;99.90;;;;;;4950611;28;20100;-75
2023/03/03 04:53:29;;;;;;;10.45;4.03;;;0.60;99.90;;;;;;4950220;28;20035;-74
2023/03/03 04:55:55;;;;;;;6.13;3.95;;;0.60;99.90;;;;;;4949775;28;20488;-74
2023/03/03 04:58:21;;;;;;;15.93;5.63;;;0.60;99.90;;;;;;4947788;28;20055;-74
2023/03/03 05:00:52;;;;;;;8.27;3.42;;;0.60;99.90;;;;;;4948465;28;20563;-74
2023/03/03 05:03:18;;;;;;;5.75;3.70;;;0.60;99.90;;;;;;4959506;28;20551;-74
2023/03/03 05:05:46;;;;;;;6.78;3.65;;;0.60;99.90;;;;;;4967913;28;20390;-74
2023/03/03 05:08:13;;;;;;;12.57;2.95;;;0.50;99.90;;;;;;4969621;28;20038;-75
2023/03/03 05:10:39;;;;;;;17.13;4.15;;;0.50;99.90;;;;;;4968931;28;20394;-75
2023/03/03 05:13:06;;;;;;;14.55;4.55;;;0.40;99.90;;;;;;4984084;28;20635;-75
2023/03/03 05:15:32;;;;;;;8.05;3.25;;;0.40;99.90;;;;;;4952020;28;20043;-75
2023/03/03 05:17:57;;;;;;;8.85;3.90;;;0.30;99.90;;;;;;4955575;28;20035;-74
2023/03/03 05:20:24;;;;;;;11.38;4.68;;;0.30;99.90;;;;;;4953820;28;20035;-75
2023/03/03 05:22:50;;;;;;;10.57;5.65;;;0.40;99.90;;;;;;4965957;28;20078;-74
2023/03/03 05:25:16;;;;;;;12.13;4.53;;;0.40;99.90;;;;;;4955142;28;20046;-74
2023/03/03 05:27:42;;;;;;;9.15;4.57;;;0.40;99.90;;;;;;4950435;28;20419;-75
2023/03/03 05:30:10;;;;;;;10.27;4.32;;;0.40;99.90;;;;;;4953647;28;20026;-74
2023/03/03 05:32:36;;;;;;;8.75;4.60;;;0.40;99.90;;;;;;4966750;28;20399;-74
2023/03/03 05:35:04;;;;;;;14.95;5.78;;;0.40;99.90;;;;;;4970931;28;20035;-75
2023/03/03 05:37:30;;;;;;;8.23;3.15;;;0.30;99.90;;;;;;4955683;28;20054;-74
2023/03/03 05:39:55;;;;;;;8.27;3.45;;;0.20;99.90;;;;;;4957453;28;20407;-74
2023/03/03 05:42:21;;;;;;;8.68;4.75;;;0.20;99.90;;;;;;4962642;28;20026;-74
2023/03/03 05:44:47;;;;;;;9.38;3.63;;;0.20;99.90;;;;;;4981044;28;20546;-75
2023/03/03 05:47:13;;;;;;;14.82;4.93;;;0.20;99.90;;;;;;4957371;28;20190;-74
2023/03/03 05:49:38;;;;;;;12.00;5.38;;;0.10;99.90;;;;;;4958216;28;20027;-74
2023/03/03 05:52:04;;;;;;;10.55;4.80;;;0.10;99.90;;;;;;4960717;28;20431;-75
2023/03/03 05:54:30;;;;;;;10.25;4.50;;;0.10;99.90;;;;;;4957206;28;20441;-82
2023/03/03 05:56:56;;;;;;;12.90;6.60;;;0.10;99.90;;;;;;4965068;28;20031;-80
2023/03/03 05:59:23;;;;;;;8.55;5.57;;;0.10;99.90;;;;;;4962642;28;20581;-80
2023/03/03 06:01:49;;;;;;;14.30;6.57;;;0.00;99.90;;;;;;4971606;28;20041;-79
2023/03/03 06:04:15;;;;;;;47.50;19.73;;;0.10;99.90;;;;;;4960664;28;20113;-80
2023/03/03 06:06:41;;;;;;;20.40;8.35;;;0.10;99.90;;;;;;4972367;28;20102;-83
2023/03/03 06:09:07;;;;;;;12.85;6.47;;;-0.20;99.90;;;;;;4968480;28;20122;-80
2023/03/03 06:11:33;;;;;;;20.80;4.97;;;-0.20;99.90;;;;;;4951368;28;20031;-79
2023/03/03 06:13:59;;;;;;;5.65;3.55;;;-0.20;99.90;;;;;;4991344;28;20151;-81
2023/03/03 06:16:25;;;;;;;8.40;4.32;;;-0.10;99.90;;;;;;4972660;28;20085;-80
2023/03/03 06:18:50;;;;;;;14.88;5.90;;;-0.10;99.90;;;;;;4969419;28;20038;-79
2023/03/03 06:21:16;;;;;;;10.57;4.30;;;-0.30;99.90;;;;;;4960220;28;20113;-78
2023/03/03 06:23:42;;;;;;;8.05;5.18;;;-0.20;99.90;;;;;;4967604;28;20054;-78
2023/03/03 06:26:08;;;;;;;9.93;5.45;;;-0.20;99.90;;;;;;4956770;28;20781;-79
2023/03/03 06:28:34;;;;;;;10.80;5.15;;;-0.10;99.90;;;;;;4963027;28;20026;-78
2023/03/03 06:30:59;;;;;;;16.00;6.63;;;-0.10;99.90;;;;;;4964832;28;20027;-77
2023/03/03 06:33:25;;;;;;;10.60;5.80;;;0.00;99.90;;;;;;4971733;28;20055;-78
2023/03/03 06:35:53;;;;;;;13.70;5.53;;;0.00;99.90;;;;;;4962012;28;20030;-80
2023/03/03 06:38:19;;;;;;;7.25;4.15;;;-0.10;99.90;;;;;;4973890;28;20121;-77
2023/03/03 06:40:46;;;;;;;14.30;5.70;;;0.00;99.90;;;;;;4971498;28;20030;-79
2023/03/03 06:43:13;;;;;;;10.15;4.85;;;0.10;99.90;;;;;;4958690;28;21512;-79
2023/03/03 06:45:39;;;;;;;16.27;6.55;;;0.20;99.90;;;;;;4953919;28;20029;-79
2023/03/03 06:48:05;;;;;;;18.50;7.60;;;0.20;99.90;;;;;;4974581;28;20022;-76
2023/03/03 06:50:31;;;;;;;10.23;6.35;;;0.30;99.90;;;;;;4971368;28;20097;-84
2023/03/03 06:53:16;;;;;;;14.23;6.15;;;0.40;99.90;;;;;;4977631;28;20050;-77
2023/03/03 06:55:43;;;;;;;7.32;5.13;;;0.40;99.90;;;;;;4964724;28;20034;-77
2023/03/03 06:58:23;;;;;;;16.33;6.43;;;0.60;99.90;;;;;;4975406;28;20395;-81
2023/03/03 07:01:00;;;;;;;14.07;5.50;;;0.70;99.90;;;;;;4973873;28;20454;-83
2023/03/03 07:03:33;;;;;;;15.40;6.72;;;0.80;99.90;;;;;;4988340;28;20066;-77
2023/03/03 07:05:59;;;;;;;12.38;6.80;;;0.80;99.90;;;;;;4968794;28;20483;-77
2023/03/03 07:08:30;;;;;;;17.77;7.75;;;0.80;99.90;;;;;;4976015;28;20083;-84
2023/03/03 07:11:07;;;;;;;13.57;5.22;;;0.70;99.90;;;;;;4991594;23;20035;-84
2023/03/03 07:13:33;;;;;;;12.68;6.75;;;0.80;99.90;;;;;;4987880;28;20114;-84
2023/03/03 07:16:08;;;;;;;16.90;5.85;;;0.90;99.90;;;;;;4994549;28;20435;-83
2023/03/03 07:18:51;;;;;;;18.83;7.97;;;0.90;99.90;;;;;;4991386;28;20040;-85
2023/03/03 07:21:32;;;;;;;13.48;6.25;;;1.00;99.90;;;;;;4976634;28;20495;-85
2023/03/03 07:24:00;;;;;;;21.83;7.15;;;0.90;99.90;;;;;;4973490;28;20022;-84
2023/03/03 07:26:31;;;;;;;11.40;7.30;;;1.00;99.90;;;;;;4969610;28;20094;-83
2023/03/03 07:29:20;;;;;;;9.88;6.97;;;1.00;99.90;;;;;;4985592;28;20073;-83
2023/03/03 07:31:47;;;;;;;14.88;5.78;;;1.00;99.90;;;;;;4975491;28;20057;-82
2023/03/03 07:34:21;;;;;;;40.63;7.35;;;1.10;99.90;;;;;;4989398;28;20138;-82
2023/03/03 07:36:56;;;;;;;13.38;6.13;;;1.20;99.90;;;;;;4972152;28;20027;-83
2023/03/03 07:39:34;;;;;;;16.83;8.30;;;1.30;99.90;;;;;;4966566;28;20058;-82
2023/03/03 07:42:18;;;;;;;13.73;6.93;;;1.40;99.90;;;;;;4968670;28;20049;-82
2023/03/03 07:44:47;;;;;;;19.02;6.63;;;1.50;99.90;;;;;;4969988;28;20044;-81
2023/03/03 07:47:27;;;;;;;13.88;6.32;;;1.60;99.90;;;;;;4961975;28;20766;-82
2023/03/03 07:49:56;;;;;;;20.70;7.35;;;1.60;99.90;;;;;;4953814;28;20050;-83
2023/03/03 07:52:42;;;;;;;9.40;5.75;;;1.70;99.90;;;;;;4955048;28;20041;-84
2023/03/03 07:55:36;;;;;;;12.95;7.40;;;1.80;99.90;;;;;;4973783;28;20093;-81
2023/03/03 07:58:21;;;;;;;20.05;8.55;;;1.90;99.90;;;;;;4972380;28;20663;-83
2023/03/03 08:01:25;;;;;;;12.30;6.97;;;2.10;99.90;;;;;;4988832;28;20038;-82
2023/03/03 08:03:51;;;;;;;12.80;6.90;;;2.10;99.90;;;;;;4972099;28;20056;-83
2023/03/03 08:06:45;;;;;;;15.68;7.00;;;2.10;99.90;;;;;;4972869;28;20391;-84
2023/03/03 08:09:11;;;;;;;16.67;7.30;;;2.30;99.90;;;;;;4972435;28;20085;-83
2023/03/03 08:11:50;;;;;;;14.18;6.85;;;2.40;99.90;;;;;;4973499;28;20503;-83
2023/03/03 08:14:29;;;;;;;16.45;8.13;;;2.40;99.90;;;;;;4970611;28;20158;-82
2023/03/03 08:16:56;;;;;;;16.33;9.98;;;2.40;99.90;;;;;;4973485;28;20394;-82
2023/03/03 08:19:23;;;;;;;16.50;7.60;;;2.40;99.90;;;;;;4971398;28;20022;-78
2023/03/03 08:21:49;;;;;;;12.20;6.20;;;2.60;99.90;;;;;;4971995;28;20039;-84
2023/03/03 08:24:15;;;;;;;20.35;9.25;;;2.70;99.90;;;;;;4970136;28;20114;-75
2023/03/03 08:26:41;;;;;;;19.73;8.35;;;2.70;99.90;;;;;;4984680;28;20110;-82
2023/03/03 08:29:07;;;;;;;19.33;7.93;;;2.80;99.90;;;;;;4978201;28;20557;-81
2023/03/03 08:31:32;;;;;;;16.98;7.88;;;2.90;99.90;;;;;;4972593;28;20054;-79
2023/03/03 08:33:59;;;;;;;19.65;8.82;;;3.00;99.90;;;;;;4971315;28;20035;-80
2023/03/03 08:36:24;;;;;;;15.73;7.60;;;3.00;99.90;;;;;;4972892;28;20126;-80
2023/03/03 08:38:50;;;;;;;15.00;7.28;;;3.10;99.90;;;;;;4971500;28;20117;-80
2023/03/03 08:41:16;;;;;;;22.15;10.23;;;3.20;99.90;;;;;;4972681;28;20085;-79
2023/03/03 08:43:44;;;;;;;19.58;8.98;;;3.30;99.90;;;;;;4972083;28;20027;-81
2023/03/03 08:46:10;;;;;;;19.95;8.98;;;3.30;99.90;;;;;;4964815;28;20593;-81
2023/03/03 08:48:37;;;;;;;20.95;7.88;;;3.50;99.90;;;;;;4972966;28;20058;-80
2023/03/03 08:51:03;;;;;;;21.30;9.27;;;3.60;99.90;;;;;;4964069;28;20026;-81
2023/03/03 08:53:32;;;;;;;17.85;8.85;;;3.70;99.90;;;;;;4971362;28;20479;-81
2023/03/03 08:55:58;;;;;;;14.25;7.32;;;3.80;99.90;;;;;;4979935;28;20403;-81
2023/03/03 08:58:24;;;;;;;19.95;8.63;;;3.90;99.90;;;;;;4987544;28;20034;-80
2023/03/03 09:00:49;;;;;;;20.20;9.02;;;4.00;99.90;;;;;;4965026;28;20419;-81
2023/03/03 09:03:15;;;;;;;20.83;8.73;;;4.20;99.90;;;;;;4972730;28;20031;-81
2023/03/03 09:05:43;;;;;;;16.73;7.75;;;4.30;99.90;;;;;;4965847;28;20060;-80
2023/03/03 09:08:09;;;;;;;18.50;9.50;;;4.50;99.90;;;;;;4971138;28;20077;-81
2023/03/03 09:10:35;;;;;;;18.75;9.30;;;4.50;99.90;;;;;;4965116;28;20427;-80
2023/03/03 09:13:11;;;;;;;15.80;7.88;;;4.60;99.90;;;;;;4971097;28;20030;-81
2023/03/03 09:15:37;;;;;;;17.63;7.78;;;4.70;99.90;;;;;;4964218;28;20034;-82
2023/03/03 09:18:21;;;;;;;24.20;9.15;;;4.80;99.90;;;;;;4972068;28;20027;-81
2023/03/03 09:20:49;;;;;;;15.63;7.47;;;4.80;99.90;;;;;;4964883;28;20061;-80
2023/03/03 09:23:48;;;;;;;16.73;8.57;;;5.00;99.90;;;;;;4972367;28;20602;-81
2023/03/03 09:26:44;;;;;;;18.00;7.80;;;5.10;99.90;;;;;;4962443;28;20039;-85
2023/03/03 09:29:12;;;;;;;14.20;7.40;;;5.30;99.90;;;;;;4970673;28;20035;-86
2023/03/03 09:31:57;;;;;;;16.17;8.27;;;5.40;99.90;;;;;;4967125;28;20539;-85
2023/03/03 09:34:37;;;;;;;21.50;9.60;;;5.50;99.90;;;;;;4952904;28;20093;-86
2023/03/03 09:37:39;;;;;;;17.70;8.27;;;5.60;99.90;;;;;;4970354;28;20022;-87
2023/03/03 09:40:32;;;;;;;20.27;9.25;;;5.70;99.90;;;;;;4953785;28;20143;-84
2023/03/03 09:43:14;;;;;;;19.35;8.68;;;5.90;99.90;;;;;;4972046;28;20030;-86
2023/03/03 09:46:16;;;;;;;18.45;8.10;;;6.00;99.90;;;;;;4964199;28;20410;-85
2023/03/03 09:49:00;;;;;;;29.15;9.13;;;6.20;99.90;;;;;;4966014;28;20739;-86
2023/03/03 09:52:12;;;;;;;19.73;9.07;;;6.30;99.90;;;;;;4965124;28;20086;-77
2023/03/03 09:55:06;;;;;;;23.58;8.77;;;6.50;99.90;;;;;;4940777;28;20534;-85
2023/03/03 09:57:57;;;;;;;18.80;7.70;;;6.60;99.90;;;;;;4961699;28;20038;-84
2023/03/03 10:01:01;;;;;;;24.02;7.88;;;6.70;99.90;;;;;;4962109;28;20058;-85
2023/03/03 10:03:56;;;;;;;19.13;9.02;;;6.70;99.90;;;;;;4948167;28;20054;-84
2023/03/03 10:06:38;;;;;;;22.02;8.38;;;6.90;99.90;;;;;;4970542;28;20498;-81
2023/03/03 10:09:41;;;;;;;16.70;7.72;;;6.90;99.90;;;;;;4968193;28;20058;-86
2023/03/03 10:12:38;;;;;;;20.35;9.68;;;7.00;99.90;;;;;;4971406;28;20089;-85
2023/03/03 10:15:26;;;;;;;18.05;9.80;;;7.20;99.90;;;;;;4969872;28;20034;-86
2023/03/03 10:18:28;;;;;;;24.20;8.60;;;7.30;99.90;;;;;;4968428;28;20035;-86
2023/03/03 10:21:04;;;;;;;;;;;7.40;99.90;;;;;;4972215;28;20064;-86
2023/03/03 10:24:15;;;;;;;21.20;9.02;;;7.60;99.90;;;;;;4970353;28;19918;-86
2023/03/03 10:27:41;;;;;;;21.65;11.07;;;7.60;99.90;;;;;;4962993;28;20038;-86
2023/03/03 10:30:42;;;;;;;26.42;9.68;;;7.90;99.90;;;;;;4969940;28;20094;-85
2023/03/03 10:33:18;;;;;;;22.60;8.60;;;8.20;99.90;;;;;;4964317;28;20091;-85
2023/03/03 10:35:50;;;;;;;19.92;7.32;;;8.20;99.90;;;;;;4971668;28;20030;-84
2023/03/03 10:38:37;;;;;;;20.30;8.23;;;8.40;99.90;;;;;;4967418;28;20042;-84
2023/03/03 10:41:25;;;;;;;22.08;9.57;;;8.50;99.90;;;;;;4970462;28;20023;-84
2023/03/03 10:44:16;;;;;;;23.77;9.85;;;8.10;99.90;;;;;;4973696;28;20031;-85
2023/03/03 10:47:03;;;;;;;22.40;9.38;;;8.40;99.90;;;;;;4967031;28;20042;-85
2023/03/03 10:50:09;;;;;;;22.92;8.88;;;8.80;99.90;;;;;;4966913;28;20094;-83
2023/03/03 10:52:52;;;;;;;24.08;7.95;;;8.90;99.90;;;;;;4964954;28;20487;-80
2023/03/03 10:55:52;;;;;;;22.25;9.93;;;9.40;99.90;;;;;;4970840;28;20054;-82
2023/03/03 10:58:34;;;;;;;25.45;9.25;;;9.50;99.50;;;;;;4971430;28;20030;-81
2023/03/03 11:01:28;;;;;;;23.80;9.80;;;9.80;99.10;;;;;;4974140;28;20027;-82
2023/03/03 11:04:09;;;;;;;26.77;10.15;;;10.00;99.00;;;;;;4970611;28;20046;-82
2023/03/03 11:06:52;;;;;;;17.65;8.75;;;10.50;98.10;;;;;;4974629;28;20624;-82
2023/03/03 11:10:02;;;;;;;21.63;8.55;;;10.50;97.80;;;;;;4969408;28;20090;-82
2023/03/03 11:12:50;;;;;;;26.90;10.50;;;10.30;97.80;;;;;;4969805;28;20043;-82
2023/03/03 11:16:01;;;;;;;19.10;8.63;;;10.40;97.00;;;;;;4973277;28;20027;-82
2023/03/03 11:18:51;;;;;;;21.02;7.47;;;10.90;96.60;;;;;;4968396;28;20062;-82
2023/03/03 11:21:44;;;;;;;26.02;9.75;;;11.20;95.90;;;;;;4963305;28;20502;-81
2023/03/03 11:24:37;;;;;;;21.55;8.10;;;11.30;95.30;;;;;;4970048;28;20371;-82
2023/03/03 11:27:33;;;;;;;21.42;8.07;;;12.10;94.50;;;;;;4974220;28;20042;-82
2023/03/03 11:30:33;;;;;;;20.67;8.32;;;12.30;94.60;;;;;;4973789;28;20026;-82
2023/03/03 11:33:26;;;;;;;19.65;9.27;;;13.70;92.50;;;;;;4970597;28;20039;-82
2023/03/03 11:36:06;;;;;;;21.38;9.32;;;14.80;90.80;;;;;;4972816;28;20026;-82
2023/03/03 11:39:01;;;;;;;22.75;9.27;;;15.60;87.70;;;;;;4969355;28;20061;-82
2023/03/03 11:41:37;;;;;;;22.15;8.65;;;16.00;85.20;;;;;;4966963;28;20401;-82
2023/03/03 11:44:28;;;;;;;22.13;8.57;;;16.10;82.10;;;;;;4969342;28;20015;-82
2023/03/03 11:47:24;;;;;;;21.15;8.35;;;16.60;81.70;;;;;;4972841;28;20049;-83
2023/03/03 11:50:29;;;;;;;23.63;8.70;;;17.00;78.90;;;;;;4970160;28;20034;-82
2023/03/03 11:53:51;;;;;;;21.55;7.78;;;18.00;76.30;;;;;;4954811;28;20134;-82
2023/03/03 11:56:40;;;;;;;19.58;8.25;;;18.10;74.00;;;;;;4973553;28;20034;-82
2023/03/03 11:59:46;;;;;;;16.75;7.90;;;17.00;75.10;;;;;;4968837;28;20038;-82
2023/03/03 12:02:54;;;;;;;19.38;8.85;;;17.10;74.80;;;;;;4973310;28;20046;-83
2023/03/03 12:05:56;;;;;;;20.70;8.07;;;17.80;72.40;;;;;;4970938;28;20035;-84
2023/03/03 12:08:52;;;;;;;23.58;8.38;;;18.30;71.40;;;;;;4968488;28;20030;-85
2023/03/03 12:12:07;;;;;;;22.08;8.90;;;17.90;69.80;;;;;;4978070;28;20031;-81
2023/03/03 12:14:58;;;;;;;21.98;8.52;;;14.20;77.40;;;;;;4985216;28;20696;-80
2023/03/03 12:17:46;;;;;;;14.65;6.60;;;15.30;76.00;;;;;;4947197;28;20460;-81
2023/03/03 12:20:45;;;;;;;17.77;8.50;;;17.00;73.50;;;;;;4986971;28;20042;-77
2023/03/03 12:23:56;;;;;;;20.65;7.68;;;17.10;72.10;;;;;;4969834;28;20046;-78
2023/03/03 12:27:23;;;;;;;20.92;9.15;;;18.20;70.60;;;;;;4973131;28;20383;-81
2023/03/03 12:30:22;;;;;;;20.10;8.27;;;16.30;72.30;;;;;;4951675;28;20050;-79
2023/03/03 12:33:33;;;;;;;20.00;7.55;;;17.20;71.30;;;;;;4953290;28;20038;-82
2023/03/03 12:36:34;;;;;;;28.98;8.77;;;18.70;68.60;;;;;;4958009;28;20031;-83
2023/03/03 12:39:35;;;;;;;19.00;7.32;;;18.80;67.10;;;;;;4972831;28;20038;-81
2023/03/03 12:42:28;;;;;;;20.70;8.30;;;18.70;67.60;;;;;;4932408;28;20142;-82
2023/03/03 12:45:06;;;;;;;18.25;7.85;;;19.30;66.40;;;;;;4971894;28;20035;-86
2023/03/03 12:47:43;;;;;;;18.60;8.35;;;18.70;67.10;;;;;;4959122;28;20023;-83
2023/03/03 12:50:09;;;;;;;18.15;7.82;;;17.00;69.40;;;;;;4971150;28;20034;-83
2023/03/03 12:52:40;;;;;;;17.60;7.32;;;17.80;68.50;;;;;;4972093;28;20062;-82
2023/03/03 12:55:40;;;;;;;20.25;9.18;;;18.40;67.70;;;;;;4987519;28;20464;-84
2023/03/03 12:58:43;;;;;;;19.30;8.00;;;16.80;68.30;;;;;;4970897;28;20510;-82
2023/03/03 13:01:31;;;;;;;24.50;9.00;;;19.10;66.90;;;;;;4973137;28;20041;-80
2023/03/03 13:04:32;;;;;;;18.00;8.40;;;17.70;67.70;;;;;;4964697;28;20035;-83
2023/03/03 13:07:10;;;;;;;;;;;17.20;68.60;;;;;;4970837;28;20066;-83
2023/03/03 13:10:04;;;;;;;16.33;7.55;;;17.70;68.00;;;;;;4972281;28;19914;-83
2023/03/03 13:12:58;;;;;;;21.17;6.78;;;16.70;69.30;;;;;;4972500;28;20521;-84
2023/03/03 13:15:29;;;;;;;16.33;7.07;;;16.30;70.20;;;;;;4966435;28;20129;-83
2023/03/03 13:18:27;;;;;;;16.27;7.13;;;17.40;68.50;;;;;;4967993;28;20038;-84
2023/03/03 13:21:13;;;;;;;20.33;8.20;;;17.20;68.20;;;;;;4969773;28;20039;-83
2023/03/03 13:24:06;;;;;;;13.05;6.50;;;16.50;69.20;;;;;;4971950;28;20062;-83
2023/03/03 13:26:52;;;;;;;17.73;6.93;;;17.60;68.60;;;;;;4969327;28;20029;-84
2023/03/03 13:29:34;;;;;;;14.90;6.68;;;18.30;66.70;;;;;;4951477;28;20491;-83
2023/03/03 13:32:11;;;;;;;16.17;7.05;;;17.90;66.30;;;;;;4969140;28;20082;-84
2023/03/03 13:34:55;;;;;;;17.25;6.78;;;17.00;67.30;;;;;;4970443;28;20105;-84